Time;durP1;ratioP1;P1;durP2;ratioP2;P2;SDS_P1;SDS_P2;PMS_P1;PMS_P2;Temp;Humidity;BMP_temperature;BMP_pressure;BME280_temperature;BME280_humidity;BME280_pressure;Samples;Min_cycle;Max_cycle;Signal;HPM_P1;HPM_P2
2024/01/11 00:00:10;;;;;;;47.77;23.70;;;-4.40;99.90;;;;;;5133079;27;20597;-72
2024/01/11 00:02:36;;;;;;;49.17;22.83;;;-4.50;99.90;;;;;;5094213;28;20560;-72
2024/01/11 00:05:02;;;;;;;42.23;20.47;;;-4.50;99.90;;;;;;5111976;27;20181;-72
2024/01/11 00:07:27;;;;;;;43.03;22.10;;;-4.50;99.90;;;;;;5132776;27;20193;-72
2024/01/11 00:09:53;;;;;;;41.90;21.00;;;-4.50;99.90;;;;;;5132605;27;20727;-72
2024/01/11 00:12:18;;;;;;;39.77;20.77;;;-4.50;99.90;;;;;;5097214;27;20184;-72
2024/01/11 00:14:44;;;;;;;50.80;22.33;;;-4.50;99.90;;;;;;5114131;27;20188;-72
2024/01/11 00:17:10;;;;;;;51.30;25.30;;;-4.60;99.90;;;;;;5132437;27;20219;-72
2024/01/11 00:19:35;;;;;;;45.77;23.57;;;-4.60;99.90;;;;;;5096820;27;20211;-72
2024/01/11 00:22:01;;;;;;;42.70;21.97;;;-4.60;99.90;;;;;;5114116;27;20717;-72
2024/01/11 00:24:27;;;;;;;53.63;25.30;;;-4.60;99.90;;;;;;5113723;27;20177;-72
2024/01/11 00:26:53;;;;;;;59.40;24.93;;;-4.60;99.90;;;;;;5096721;27;20581;-72
2024/01/11 00:29:18;;;;;;;53.33;24.03;;;-4.70;99.90;;;;;;5096845;27;20193;-73
2024/01/11 00:31:44;;;;;;;51.37;24.17;;;-4.70;99.90;;;;;;5132426;27;20177;-73
2024/01/11 00:34:09;;;;;;;46.30;23.27;;;-4.70;99.90;;;;;;5132333;27;20200;-72
2024/01/11 00:36:36;;;;;;;44.30;21.43;;;-4.70;99.90;;;;;;5131989;27;20191;-72
2024/01/11 00:39:02;;;;;;;44.45;21.30;;;-4.60;99.90;;;;;;5113803;27;20174;-72
2024/01/11 00:41:28;;;;;;;51.13;21.73;;;-4.70;99.90;;;;;;5132127;27;20212;-72
2024/01/11 00:43:53;;;;;;;52.43;22.20;;;-4.60;99.90;;;;;;5132041;27;20188;-72
2024/01/11 00:46:19;;;;;;;47.60;20.90;;;-4.70;99.90;;;;;;5132046;27;20181;-72
2024/01/11 00:48:44;;;;;;;46.57;21.33;;;-4.80;99.90;;;;;;5113375;27;20201;-72
2024/01/11 00:51:10;;;;;;;39.93;21.20;;;-4.90;99.90;;;;;;5113454;27;20735;-72
2024/01/11 00:53:36;;;;;;;48.00;21.43;;;-4.90;99.90;;;;;;5131758;27;20188;-72
2024/01/11 00:56:01;;;;;;;43.67;21.77;;;-4.90;99.90;;;;;;5113252;27;20184;-72
2024/01/11 00:58:27;;;;;;;43.50;21.80;;;-4.90;99.90;;;;;;5131651;27;20209;-72
2024/01/11 01:00:54;;;;;;;48.07;22.80;;;-4.90;99.90;;;;;;5131600;27;20326;-72
2024/01/11 01:03:22;;;;;;;49.47;22.73;;;-4.90;99.90;;;;;;5112969;27;20260;-72
2024/01/11 01:05:48;;;;;;;38.72;20.92;;;-4.90;99.90;;;;;;5131212;27;20267;-72
2024/01/11 01:08:14;;;;;;;47.97;23.33;;;-4.80;99.90;;;;;;5131366;27;20279;-72
2024/01/11 01:10:40;;;;;;;48.83;24.65;;;-4.80;99.90;;;;;;5112813;27;20603;-72
2024/01/11 01:13:05;;;;;;;47.23;23.87;;;-4.80;99.90;;;;;;5112853;27;20264;-72
2024/01/11 01:15:31;;;;;;;54.77;25.37;;;-4.80;99.90;;;;;;5131313;27;20199;-72
2024/01/11 01:17:57;;;;;;;47.43;23.33;;;-4.80;99.90;;;;;;5095594;27;20212;-72
2024/01/11 01:20:23;;;;;;;45.40;22.45;;;-4.80;99.90;;;;;;5131175;27;20204;-72
2024/01/11 01:22:49;;;;;;;41.77;22.50;;;-4.80;99.90;;;;;;5112503;27;20278;-72
2024/01/11 01:25:15;;;;;;;51.55;23.27;;;-4.80;99.90;;;;;;5131030;27;20198;-72
2024/01/11 01:27:40;;;;;;;36.43;20.10;;;-4.90;99.90;;;;;;5130915;27;20200;-72
2024/01/11 01:30:06;;;;;;;42.77;20.63;;;-5.00;99.90;;;;;;5130925;27;20201;-72
2024/01/11 01:32:32;;;;;;;42.05;20.25;;;-5.00;99.90;;;;;;5112625;27;20566;-72
2024/01/11 01:34:58;;;;;;;41.97;20.60;;;-5.00;99.90;;;;;;5112543;27;20179;-72
2024/01/11 01:37:23;;;;;;;42.13;20.03;;;-5.00;99.90;;;;;;5112170;27;20995;-71
2024/01/11 01:39:49;;;;;;;37.50;20.30;;;-5.10;99.90;;;;;;5111962;27;20224;-71
2024/01/11 01:42:15;;;;;;;45.10;21.70;;;-5.10;99.90;;;;;;5130795;27;20875;-72
2024/01/11 01:44:41;;;;;;;42.03;21.20;;;-5.20;99.90;;;;;;5112150;27;20280;-72
2024/01/11 01:47:09;;;;;;;52.08;23.95;;;-5.10;99.90;;;;;;5130532;27;20200;-72
2024/01/11 01:49:36;;;;;;;43.83;21.25;;;-5.00;99.90;;;;;;5130521;27;20198;-72
2024/01/11 01:52:03;;;;;;;45.67;23.02;;;-4.90;99.90;;;;;;5130759;27;20573;-72
2024/01/11 01:54:30;;;;;;;43.45;23.35;;;-4.90;99.90;;;;;;5112082;27;20188;-72
2024/01/11 01:56:55;;;;;;;53.70;23.02;;;-4.90;99.90;;;;;;5094724;27;20204;-72
2024/01/11 01:59:23;;;;;;;46.13;23.08;;;-4.90;99.90;;;;;;5130240;27;20190;-72
2024/01/11 02:01:49;;;;;;;41.97;21.23;;;-4.90;99.90;;;;;;5130465;27;20181;-71
2024/01/11 02:04:15;;;;;;;46.13;22.80;;;-4.90;99.90;;;;;;5130293;27;20177;-72
2024/01/11 02:06:44;;;;;;;45.83;22.20;;;-4.90;99.90;;;;;;5111728;27;20438;-71
2024/01/11 02:09:11;;;;;;;50.42;23.80;;;-4.90;99.90;;;;;;5130064;27;20429;-72
2024/01/11 02:11:38;;;;;;;45.58;22.80;;;-4.90;99.90;;;;;;5130200;27;20181;-71
2024/01/11 02:14:04;;;;;;;45.75;22.52;;;-4.90;99.90;;;;;;5130111;27;20206;-71
2024/01/11 02:16:30;;;;;;;50.13;22.80;;;-4.90;99.90;;;;;;5129669;27;20189;-72
2024/01/11 02:18:56;;;;;;;42.80;20.87;;;-4.90;99.90;;;;;;5111418;27;20423;-72
2024/01/11 02:21:23;;;;;;;46.53;22.70;;;-4.80;99.90;;;;;;5130087;27;20256;-72
2024/01/11 02:24:07;;;;;;;51.38;22.45;;;-4.80;99.90;;;;;;5129800;27;20180;-72
2024/01/11 02:26:33;;;;;;;47.88;23.90;;;-4.80;99.90;;;;;;5129726;27;20169;-71
2024/01/11 02:28:59;;;;;;;42.70;21.07;;;-4.90;99.90;;;;;;5129843;27;20656;-71
2024/01/11 02:31:25;;;;;;;46.00;23.23;;;-4.90;99.90;;;;;;5111135;27;20410;-71
2024/01/11 02:33:55;;;;;;;49.50;22.50;;;-4.80;99.90;;;;;;5110976;27;20475;-71
2024/01/11 02:36:22;;;;;;;43.78;22.27;;;-4.80;99.90;;;;;;5129463;27;20460;-72
2024/01/11 02:38:48;;;;;;;43.55;21.05;;;-4.80;99.90;;;;;;5110948;27;20209;-72
2024/01/11 02:41:18;;;;;;;43.75;21.98;;;-4.80;99.90;;;;;;5129491;27;20646;-71
2024/01/11 02:43:48;;;;;;;50.17;23.52;;;-4.90;99.90;;;;;;5129550;27;20181;-72
2024/01/11 02:46:15;;;;;;;51.53;21.27;;;-5.00;99.90;;;;;;5129508;27;20169;-72
2024/01/11 02:48:41;;;;;;;41.03;20.33;;;-5.00;99.90;;;;;;5111130;27;20680;-72
2024/01/11 02:51:06;;;;;;;41.00;20.23;;;-5.10;99.90;;;;;;5110993;28;20192;-72
2024/01/11 02:53:34;;;;;;;45.43;21.70;;;-5.00;99.90;;;;;;5110963;27;20249;-73
2024/01/11 02:56:00;;;;;;;43.42;20.65;;;-5.10;99.90;;;;;;5129388;27;20220;-72
2024/01/11 02:58:26;;;;;;;39.13;20.73;;;-5.00;99.90;;;;;;5129333;27;20203;-72
2024/01/11 03:00:52;;;;;;;43.53;21.73;;;-5.10;99.90;;;;;;5110960;28;20216;-72
2024/01/11 03:03:17;;;;;;;42.23;21.67;;;-5.20;99.90;;;;;;5129304;27;20479;-72
2024/01/11 03:05:43;;;;;;;42.10;21.53;;;-5.30;99.90;;;;;;5110687;28;20840;-72
2024/01/11 03:08:08;;;;;;;39.10;20.83;;;-5.30;99.90;;;;;;5110805;28;20238;-71
2024/01/11 03:10:37;;;;;;;41.03;21.03;;;-5.30;99.90;;;;;;5129449;28;20181;-73
2024/01/11 03:13:02;;;;;;;44.00;22.52;;;-5.40;99.90;;;;;;5110843;28;20185;-72
2024/01/11 03:15:28;;;;;;;47.80;23.20;;;-5.40;99.90;;;;;;5129150;28;20816;-72
2024/01/11 03:17:53;;;;;;;43.00;22.00;;;-5.40;99.90;;;;;;5129186;28;20756;-73
2024/01/11 03:20:23;;;;;;;48.27;23.00;;;-5.30;99.90;;;;;;5129259;28;20238;-72
2024/01/11 03:22:48;;;;;;;46.55;22.48;;;-5.30;99.90;;;;;;5110600;28;20184;-72
2024/01/11 03:25:14;;;;;;;44.43;21.13;;;-5.30;99.90;;;;;;5093515;28;20196;-72
2024/01/11 03:27:39;;;;;;;50.20;22.60;;;-5.20;99.90;;;;;;5111870;27;20214;-72
2024/01/11 03:30:05;;;;;;;48.10;23.10;;;-5.20;99.90;;;;;;5114710;27;20191;-72
2024/01/11 03:32:31;;;;;;;53.28;22.50;;;-5.20;99.90;;;;;;5133438;27;20245;-72
2024/01/11 03:34:57;;;;;;;48.13;22.70;;;-5.30;99.90;;;;;;5097607;27;20272;-72
2024/01/11 03:37:22;;;;;;;47.43;22.93;;;-5.30;99.90;;;;;;5133224;27;20712;-72
2024/01/11 03:39:48;;;;;;;46.97;22.40;;;-5.30;99.90;;;;;;5097481;27;20218;-71
2024/01/11 03:42:13;;;;;;;44.50;22.20;;;-5.30;99.90;;;;;;5097437;27;20247;-72
2024/01/11 03:44:39;;;;;;;41.77;20.90;;;-5.30;99.90;;;;;;5133002;27;20178;-72
2024/01/11 03:47:04;;;;;;;40.13;20.60;;;-5.40;99.90;;;;;;5114445;27;20207;-72
2024/01/11 03:49:30;;;;;;;43.47;21.73;;;-5.40;99.90;;;;;;5114516;27;20176;-72
2024/01/11 03:51:56;;;;;;;47.70;22.93;;;-5.50;99.90;;;;;;5132981;27;20191;-72
2024/01/11 03:54:21;;;;;;;51.53;22.53;;;-5.60;99.90;;;;;;5114427;27;20208;-72
2024/01/11 03:56:47;;;;;;;42.53;22.20;;;-5.70;99.90;;;;;;5097181;27;20173;-72
2024/01/11 03:59:12;;;;;;;46.33;20.70;;;-5.80;99.90;;;;;;5132778;27;20201;-72
2024/01/11 04:01:41;;;;;;;40.80;20.67;;;-5.80;99.90;;;;;;5113922;27;20219;-72
2024/01/11 04:04:07;;;;;;;44.85;21.08;;;-5.70;99.90;;;;;;5114074;27;20273;-72
2024/01/11 04:06:33;;;;;;;42.53;21.20;;;-5.60;99.90;;;;;;5132488;27;20988;-73
2024/01/11 04:08:58;;;;;;;48.93;21.60;;;-5.60;99.90;;;;;;5114194;27;20184;-73
2024/01/11 04:11:27;;;;;;;45.97;21.13;;;-5.60;99.90;;;;;;5114218;27;20413;-72
2024/01/11 04:13:53;;;;;;;42.72;21.17;;;-5.50;99.90;;;;;;5113769;27;20206;-72
2024/01/11 04:16:18;;;;;;;45.73;21.87;;;-5.50;99.90;;;;;;5113857;27;20183;-72
2024/01/11 04:18:44;;;;;;;44.87;22.80;;;-5.60;99.90;;;;;;5113840;27;20287;-72
2024/01/11 04:21:30;;;;;;;46.07;21.73;;;-5.70;99.90;;;;;;5096431;27;20224;-72
2024/01/11 04:23:56;;;;;;;46.85;22.95;;;-5.70;99.90;;;;;;5132237;27;20180;-72
2024/01/11 04:26:22;;;;;;;43.75;22.48;;;-5.80;99.90;;;;;;5113752;27;20705;-72
2024/01/11 04:28:48;;;;;;;45.33;23.07;;;-5.80;99.90;;;;;;5113478;27;20401;-72
2024/01/11 04:31:16;;;;;;;59.20;25.13;;;-5.70;99.90;;;;;;5132081;27;20509;-72
2024/01/11 04:33:46;;;;;;;50.53;23.00;;;-5.80;99.90;;;;;;5113395;27;20178;-72
2024/01/11 04:36:12;;;;;;;47.65;23.38;;;-5.70;99.90;;;;;;5113341;27;20231;-72
2024/01/11 04:38:38;;;;;;;46.75;22.65;;;-5.70;99.90;;;;;;5131803;27;20692;-72
2024/01/11 04:41:10;;;;;;;44.87;23.00;;;-5.60;99.90;;;;;;5113485;27;20205;-72
2024/01/11 04:43:40;;;;;;;45.08;21.23;;;-5.60;99.90;;;;;;5132105;27;20427;-72
2024/01/11 04:46:22;;;;;;;49.75;25.00;;;-5.60;99.90;;;;;;5132001;27;20173;-72
2024/01/11 04:48:49;;;;;;;49.33;24.23;;;-5.60;99.90;;;;;;5113421;27;20226;-72
2024/01/11 04:51:16;;;;;;;47.22;23.13;;;-5.50;99.90;;;;;;5113598;27;20191;-72
2024/01/11 04:53:43;;;;;;;40.60;22.30;;;-5.50;99.90;;;;;;5113776;27;20194;-72
2024/01/11 04:56:10;;;;;;;47.15;22.38;;;-5.50;99.90;;;;;;5096429;27;20194;-72
2024/01/11 04:58:37;;;;;;;42.95;23.05;;;-5.50;99.90;;;;;;5131853;27;20209;-73
2024/01/11 05:01:05;;;;;;;51.63;24.05;;;-5.50;99.90;;;;;;5131943;27;20221;-73
2024/01/11 05:03:31;;;;;;;51.50;23.17;;;-5.50;99.90;;;;;;5132151;27;20189;-72
2024/01/11 05:05:57;;;;;;;44.22;22.83;;;-5.50;99.90;;;;;;5132116;27;20190;-73
2024/01/11 05:08:23;;;;;;;41.13;21.20;;;-5.50;99.90;;;;;;5132239;27;20707;-72
2024/01/11 05:10:49;;;;;;;43.20;19.95;;;-5.60;99.90;;;;;;5113694;27;20210;-73
2024/01/11 05:13:15;;;;;;;40.83;21.80;;;-5.60;99.90;;;;;;5132170;27;20173;-72
2024/01/11 05:15:40;;;;;;;49.87;21.60;;;-5.60;99.90;;;;;;5132075;27;20513;-72
2024/01/11 05:18:06;;;;;;;41.70;21.50;;;-5.60;99.90;;;;;;5130502;27;20212;-72
2024/01/11 05:20:32;;;;;;;38.60;20.63;;;-5.60;99.90;;;;;;5111996;27;20222;-70
2024/01/11 05:22:57;;;;;;;41.90;21.13;;;-5.70;99.90;;;;;;5112220;27;20617;-70
2024/01/11 05:25:23;;;;;;;41.87;21.60;;;-5.70;99.90;;;;;;5130307;27;20550;-71
2024/01/11 05:27:48;;;;;;;47.20;22.83;;;-5.70;99.90;;;;;;5111921;27;20741;-72
2024/01/11 05:30:14;;;;;;;49.73;22.70;;;-5.70;99.90;;;;;;5094864;27;20214;-72
2024/01/11 05:32:40;;;;;;;39.30;20.80;;;-5.70;99.90;;;;;;5130672;27;20252;-71
2024/01/11 05:35:05;;;;;;;41.57;21.60;;;-5.70;99.90;;;;;;5111855;27;20189;-71
2024/01/11 05:37:31;;;;;;;47.63;21.67;;;-5.70;99.90;;;;;;5130729;27;20318;-71
2024/01/11 05:39:57;;;;;;;42.13;19.53;;;-5.70;99.90;;;;;;5095137;27;20268;-71
2024/01/11 05:42:23;;;;;;;40.67;21.10;;;-5.80;99.90;;;;;;5130730;27;20299;-71
2024/01/11 05:44:49;;;;;;;45.58;22.33;;;-5.70;99.90;;;;;;5130642;27;20719;-72
2024/01/11 05:47:14;;;;;;;45.10;21.60;;;-5.80;99.90;;;;;;5130611;27;20275;-71
2024/01/11 05:49:40;;;;;;;58.13;22.67;;;-5.80;99.90;;;;;;5129981;27;20201;-72
2024/01/11 05:52:06;;;;;;;44.20;21.00;;;-5.80;99.90;;;;;;5111482;27;20214;-72
2024/01/11 05:54:31;;;;;;;45.33;22.00;;;-5.70;99.90;;;;;;5129771;27;20998;-72
2024/01/11 05:56:58;;;;;;;39.53;21.10;;;-5.70;99.90;;;;;;5129963;27;20215;-71
2024/01/11 05:59:24;;;;;;;43.28;21.08;;;-5.70;99.90;;;;;;5094704;27;20174;-72
2024/01/11 06:01:50;;;;;;;46.97;21.30;;;-5.70;99.90;;;;;;5093552;27;20194;-71
2024/01/11 06:04:16;;;;;;;40.13;21.17;;;-5.70;99.90;;;;;;5128923;27;20208;-72
2024/01/11 06:06:42;;;;;;;49.95;23.63;;;-5.80;99.90;;;;;;5110541;27;20256;-72
2024/01/11 06:09:08;;;;;;;43.00;21.47;;;-5.80;99.90;;;;;;5110547;27;20186;-72
2024/01/11 06:11:33;;;;;;;42.42;20.92;;;-5.80;99.90;;;;;;5110050;27;20192;-72
2024/01/11 06:14:00;;;;;;;42.07;21.87;;;-5.90;99.90;;;;;;5110326;27;20186;-72
2024/01/11 06:16:26;;;;;;;50.55;23.38;;;-5.90;99.90;;;;;;5110062;27;20214;-71
2024/01/11 06:18:51;;;;;;;46.20;23.07;;;-5.90;99.90;;;;;;5109951;27;20754;-72
2024/01/11 06:21:17;;;;;;;52.73;22.20;;;-5.80;99.90;;;;;;5109975;27;20219;-72
2024/01/11 06:23:46;;;;;;;47.60;21.13;;;-5.80;99.90;;;;;;5110334;27;20179;-71
2024/01/11 06:26:11;;;;;;;44.58;22.10;;;-5.80;99.90;;;;;;5109692;27;20288;-71
2024/01/11 06:28:37;;;;;;;48.77;22.97;;;-5.80;99.90;;;;;;5109987;27;20665;-71
2024/01/11 06:31:03;;;;;;;45.43;22.23;;;-5.90;99.90;;;;;;5076083;27;20192;-71
2024/01/11 06:33:29;;;;;;;43.05;21.52;;;-5.90;99.90;;;;;;5128402;27;20183;-71
2024/01/11 06:35:55;;;;;;;45.72;21.05;;;-5.80;99.90;;;;;;5128065;27;20314;-71
2024/01/11 06:38:21;;;;;;;46.92;23.35;;;-5.80;99.90;;;;;;5128186;27;20234;-72
2024/01/11 06:40:48;;;;;;;45.53;23.17;;;-5.80;99.90;;;;;;5109166;27;20653;-71
2024/01/11 06:43:14;;;;;;;47.67;21.85;;;-5.80;99.90;;;;;;5109322;27;20537;-72
2024/01/11 06:45:42;;;;;;;45.15;21.58;;;-5.80;99.90;;;;;;5127872;27;20185;-71
2024/01/11 06:48:08;;;;;;;76.85;32.40;;;-5.80;99.90;;;;;;5128002;27;20268;-71
2024/01/11 06:50:33;;;;;;;75.57;31.17;;;-5.80;99.90;;;;;;5129178;27;20568;-72
2024/01/11 06:53:00;;;;;;;54.80;27.70;;;-5.80;99.90;;;;;;5109673;28;20342;-72
2024/01/11 06:55:25;;;;;;;52.45;25.48;;;-5.90;99.90;;;;;;5128144;27;20183;-72
2024/01/11 06:57:51;;;;;;;52.27;24.97;;;-6.00;99.90;;;;;;5128047;27;20568;-72
2024/01/11 07:00:17;;;;;;;49.00;23.70;;;-6.10;99.90;;;;;;5127951;27;20236;-72
2024/01/11 07:02:42;;;;;;;85.00;34.10;;;-6.10;99.90;;;;;;5092230;27;20686;-72
2024/01/11 07:05:08;;;;;;;67.43;32.20;;;-6.00;99.90;;;;;;5127955;27;20207;-71
2024/01/11 07:07:34;;;;;;;51.90;26.40;;;-5.90;99.90;;;;;;5127904;28;20197;-71
2024/01/11 07:09:59;;;;;;;53.80;22.90;;;-5.90;99.90;;;;;;5109547;28;20432;-72
2024/01/11 07:12:25;;;;;;;48.77;23.13;;;-6.10;99.90;;;;;;5128319;28;20193;-71
2024/01/11 07:14:51;;;;;;;54.67;25.67;;;-6.20;99.90;;;;;;5109620;28;20190;-72
2024/01/11 07:17:17;;;;;;;39.97;22.45;;;-6.10;99.90;;;;;;5128241;28;20202;-72
2024/01/11 07:19:43;;;;;;;46.20;21.80;;;-6.00;99.90;;;;;;5109719;28;20833;-71
2024/01/11 07:22:08;;;;;;;47.03;22.90;;;-5.80;99.90;;;;;;5092641;28;20187;-71
2024/01/11 07:24:37;;;;;;;48.70;23.87;;;-5.70;99.90;;;;;;5128108;28;20417;-71
2024/01/11 07:27:06;;;;;;;47.85;21.52;;;-5.70;99.90;;;;;;5127886;28;20217;-71
2024/01/11 07:29:35;;;;;;;42.97;23.35;;;-5.60;99.90;;;;;;5127943;28;20200;-72
2024/01/11 07:32:01;;;;;;;46.85;22.55;;;-5.60;99.90;;;;;;5128015;28;20184;-72
2024/01/11 07:34:27;;;;;;;46.00;23.47;;;-5.60;99.90;;;;;;5127952;28;20178;-72
2024/01/11 07:36:53;;;;;;;49.80;24.17;;;-5.60;99.90;;;;;;5127975;28;20454;-72
2024/01/11 07:39:19;;;;;;;54.20;24.90;;;-5.50;99.90;;;;;;5128540;28;20655;-71
2024/01/11 07:41:45;;;;;;;58.15;26.27;;;-5.50;99.90;;;;;;5109747;28;20314;-71
2024/01/11 07:44:10;;;;;;;55.73;25.53;;;-5.40;99.90;;;;;;5109846;28;20299;-72
2024/01/11 07:46:36;;;;;;;52.00;23.40;;;-5.40;99.90;;;;;;5093011;28;20181;-72
2024/01/11 07:49:02;;;;;;;43.80;22.13;;;-5.50;99.90;;;;;;5109585;28;20181;-72
2024/01/11 07:51:28;;;;;;;47.55;23.42;;;-5.40;99.90;;;;;;5128069;28;20215;-72
2024/01/11 07:53:54;;;;;;;46.40;22.93;;;-5.30;99.90;;;;;;5127898;28;20205;-72
2024/01/11 07:56:19;;;;;;;59.27;28.90;;;-5.20;99.90;;;;;;5127703;28;20589;-71
2024/01/11 07:58:46;;;;;;;52.83;26.23;;;-5.20;99.90;;;;;;5092059;28;20208;-72
2024/01/11 08:01:12;;;;;;;58.00;26.95;;;-5.10;99.90;;;;;;5108823;28;20216;-71
2024/01/11 08:03:38;;;;;;;49.85;25.58;;;-4.90;99.90;;;;;;5108664;28;20187;-71
2024/01/11 08:06:05;;;;;;;48.43;26.33;;;-4.70;99.90;;;;;;5127468;28;20236;-71
2024/01/11 08:08:30;;;;;;;56.78;28.60;;;-4.50;99.90;;;;;;5108557;28;20216;-72
2024/01/11 08:10:56;;;;;;;54.13;28.10;;;-4.20;99.90;;;;;;5127460;28;20173;-71
2024/01/11 08:13:21;;;;;;;55.53;28.33;;;-3.90;99.90;;;;;;5109592;27;20260;-72
2024/01/11 08:15:47;;;;;;;60.97;27.60;;;-3.90;99.90;;;;;;5112771;27;20562;-71
2024/01/11 08:18:13;;;;;;;48.93;26.77;;;-3.90;99.90;;;;;;5130967;27;20214;-71
2024/01/11 08:20:39;;;;;;;54.05;26.45;;;-3.90;99.90;;;;;;5131065;27;20702;-71
2024/01/11 08:23:06;;;;;;;51.50;25.00;;;-3.90;99.90;;;;;;5131114;27;20183;-71
2024/01/11 08:25:32;;;;;;;54.38;27.90;;;-3.90;99.90;;;;;;5130736;27;20492;-72
2024/01/11 08:27:57;;;;;;;49.27;26.97;;;-3.90;99.90;;;;;;5112091;27;20204;-72
2024/01/11 08:30:23;;;;;;;50.40;26.70;;;-3.90;99.90;;;;;;5131169;27;20624;-70
2024/01/11 08:32:48;;;;;;;58.53;27.60;;;-3.90;99.90;;;;;;5112099;27;20181;-72
2024/01/11 08:35:14;;;;;;;48.13;25.50;;;-4.00;99.90;;;;;;5111908;27;20184;-71
2024/01/11 08:37:40;;;;;;;53.60;26.33;;;-4.00;99.90;;;;;;5130431;27;20751;-72
2024/01/11 08:40:06;;;;;;;46.90;25.10;;;-4.00;99.90;;;;;;5130453;27;20200;-72
2024/01/11 08:42:33;;;;;;;54.30;26.77;;;-4.10;99.90;;;;;;5111975;27;20213;-72
2024/01/11 08:45:03;;;;;;;59.40;29.47;;;-4.10;99.90;;;;;;5111666;27;20717;-72
2024/01/11 08:47:29;;;;;;;57.63;29.05;;;-4.00;99.90;;;;;;5130368;27;20479;-72
2024/01/11 08:49:56;;;;;;;56.15;26.98;;;-4.00;99.90;;;;;;5112003;27;20185;-72
2024/01/11 08:52:22;;;;;;;58.28;28.48;;;-4.00;99.90;;;;;;5111956;27;20547;-72
2024/01/11 08:54:49;;;;;;;64.25;28.60;;;-4.00;99.90;;;;;;5130238;27;20196;-72
2024/01/11 08:57:15;;;;;;;53.50;27.10;;;-3.90;99.90;;;;;;5130199;27;20201;-72
2024/01/11 08:59:41;;;;;;;60.27;26.93;;;-3.90;99.90;;;;;;5130216;27;20909;-71
2024/01/11 09:02:06;;;;;;;58.78;28.23;;;-3.80;99.90;;;;;;5094812;27;20446;-72
2024/01/11 09:04:33;;;;;;;57.37;28.77;;;-3.70;99.90;;;;;;5130316;27;20214;-70
2024/01/11 09:06:58;;;;;;;61.42;28.70;;;-3.80;99.90;;;;;;5111530;27;20200;-72
2024/01/11 09:09:25;;;;;;;65.38;28.60;;;-3.80;99.90;;;;;;5129781;27;20256;-71
2024/01/11 09:11:51;;;;;;;60.60;28.57;;;-4.00;99.90;;;;;;5111475;27;20292;-72
2024/01/11 09:14:17;;;;;;;59.25;28.40;;;-3.90;99.90;;;;;;5094226;27;20288;-72
2024/01/11 09:16:44;;;;;;;69.07;31.83;;;-3.80;99.90;;;;;;5129778;27;20322;-70
2024/01/11 09:19:10;;;;;;;65.85;28.02;;;-3.80;99.90;;;;;;5110914;27;20193;-72
2024/01/11 09:21:36;;;;;;;58.13;29.00;;;-3.80;99.90;;;;;;5129782;27;20219;-72
2024/01/11 09:24:02;;;;;;;53.60;27.83;;;-3.50;99.90;;;;;;5129705;27;20439;-72
2024/01/11 09:26:27;;;;;;;60.53;28.73;;;-3.40;99.90;;;;;;5128670;27;20418;-72
2024/01/11 09:28:53;;;;;;;65.43;30.00;;;-3.70;99.90;;;;;;5111119;27;20204;-70
2024/01/11 09:31:19;;;;;;;75.20;30.23;;;-3.60;99.90;;;;;;5129692;27;20229;-72
2024/01/11 09:33:45;;;;;;;62.20;29.57;;;-3.40;99.90;;;;;;5129705;27;20187;-72
2024/01/11 09:36:11;;;;;;;59.33;28.95;;;-3.30;99.90;;;;;;5093866;27;20189;-72
2024/01/11 09:38:37;;;;;;;64.32;29.23;;;-3.10;99.90;;;;;;5129352;27;20204;-72
2024/01/11 09:41:13;;;;;;;60.08;29.42;;;-2.90;99.90;;;;;;5129087;27;20208;-72
2024/01/11 09:43:41;;;;;;;72.18;33.20;;;-2.40;99.90;;;;;;5110930;27;20777;-71
2024/01/11 09:46:07;;;;;;;60.30;30.77;;;-1.30;99.90;;;;;;5110633;27;20177;-72
2024/01/11 09:48:34;;;;;;;53.28;29.58;;;-0.60;99.90;;;;;;5110783;27;20205;-72
2024/01/11 09:51:19;;;;;;;61.58;28.83;;;-0.20;99.90;;;;;;5129194;27;20204;-72
2024/01/11 09:53:45;;;;;;;63.13;29.30;;;-0.10;99.90;;;;;;5129203;27;20222;-72
2024/01/11 09:56:11;;;;;;;56.97;29.25;;;-0.20;99.90;;;;;;5129143;27;20204;-71
2024/01/11 09:58:40;;;;;;;64.83;30.97;;;-0.50;99.90;;;;;;5129177;27;20200;-71
2024/01/11 10:01:10;;;;;;;67.28;31.00;;;-0.90;99.90;;;;;;5110540;27;20208;-71
2024/01/11 10:03:36;;;;;;;60.17;29.48;;;-1.40;99.90;;;;;;5129075;27;20976;-71
2024/01/11 10:06:03;;;;;;;63.38;31.95;;;-1.50;99.90;;;;;;5128806;27;20181;-72
2024/01/11 10:08:31;;;;;;;61.00;30.38;;;-1.70;99.90;;;;;;5128890;27;20197;-71
2024/01/11 10:10:57;;;;;;;56.40;29.40;;;-2.00;99.90;;;;;;5093185;27;20296;-71
2024/01/11 10:13:28;;;;;;;57.07;30.13;;;-2.00;99.90;;;;;;5128872;27;20273;-72
2024/01/11 10:16:06;;;;;;;62.67;29.95;;;-2.20;99.90;;;;;;5110597;27;20880;-72
2024/01/11 10:18:32;;;;;;;70.88;32.03;;;-2.30;99.90;;;;;;5128658;27;20201;-71
2024/01/11 10:20:57;;;;;;;63.50;31.47;;;-2.30;99.90;;;;;;5128929;27;20305;-73
2024/01/11 10:23:23;;;;;;;70.73;31.47;;;-2.40;99.90;;;;;;5128691;27;20664;-72
2024/01/11 10:25:49;;;;;;;57.00;29.27;;;-2.40;99.90;;;;;;5128575;27;20204;-72
2024/01/11 10:28:15;;;;;;;58.37;30.93;;;-2.50;99.90;;;;;;5109505;27;20627;-72
2024/01/11 10:30:41;;;;;;;62.17;30.40;;;-2.50;99.90;;;;;;5128429;27;20429;-72
2024/01/11 10:33:07;;;;;;;57.90;29.30;;;-2.50;99.90;;;;;;5128376;27;20550;-72
2024/01/11 10:35:35;;;;;;;70.28;33.38;;;-2.60;99.90;;;;;;5109884;27;20185;-72
2024/01/11 10:38:06;;;;;;;58.35;30.42;;;-2.70;99.90;;;;;;5109623;27;20297;-71
2024/01/11 10:40:32;;;;;;;66.63;31.52;;;-2.70;99.90;;;;;;5110312;27;20316;-71
2024/01/11 10:43:01;;;;;;;62.30;29.07;;;-2.70;99.90;;;;;;5128494;27;20280;-71
2024/01/11 10:45:28;;;;;;;62.35;29.50;;;-2.70;99.90;;;;;;5128506;27;20910;-71
2024/01/11 10:47:58;;;;;;;74.82;33.92;;;-2.70;99.90;;;;;;5128088;27;20205;-72
2024/01/11 10:50:25;;;;;;;67.18;33.80;;;-2.50;99.90;;;;;;5128585;27;20264;-71
2024/01/11 10:53:37;;;;;;;68.80;31.85;;;-2.20;99.90;;;;;;5128232;27;20200;-72
2024/01/11 10:56:06;;;;;;;59.47;32.05;;;-1.90;99.90;;;;;;5081396;27;20192;-72
2024/01/11 10:58:34;;;;;;;59.58;30.27;;;-1.90;99.90;;;;;;5127978;27;20802;-72
2024/01/11 11:01:01;;;;;;;58.90;29.65;;;-1.90;99.90;;;;;;5128024;27;20212;-72
2024/01/11 11:03:28;;;;;;;63.80;29.65;;;-2.00;99.90;;;;;;5128311;27;20173;-72
2024/01/11 11:05:57;;;;;;;63.40;30.85;;;-2.40;99.90;;;;;;5109411;27;20180;-72
2024/01/11 11:08:25;;;;;;;62.25;31.05;;;-2.40;99.90;;;;;;5127984;27;20201;-72
2024/01/11 11:10:57;;;;;;;68.50;34.42;;;-2.20;99.90;;;;;;5128107;27;20824;-72
2024/01/11 11:13:23;;;;;;;69.38;33.08;;;-1.90;99.90;;;;;;5128140;27;20177;-73
2024/01/11 11:15:49;;;;;;;64.75;32.78;;;-1.80;99.90;;;;;;5109548;28;20205;-72
2024/01/11 11:18:18;;;;;;;64.70;31.57;;;-1.70;99.90;;;;;;5127914;28;20243;-72
2024/01/11 11:20:45;;;;;;;60.85;30.75;;;-1.60;99.90;;;;;;5128108;28;20324;-72
2024/01/11 11:23:14;;;;;;;71.30;33.00;;;-1.60;99.90;;;;;;5128105;28;20184;-72
2024/01/11 11:25:40;;;;;;;69.78;34.55;;;-1.50;99.90;;;;;;5128565;28;20173;-71
2024/01/11 11:28:07;;;;;;;58.25;32.00;;;-1.30;99.90;;;;;;5128055;28;20193;-71
2024/01/11 11:30:38;;;;;;;64.72;31.33;;;-1.20;99.90;;;;;;5127975;28;20211;-72
2024/01/11 11:33:17;;;;;;;57.47;30.42;;;-1.20;99.90;;;;;;5128604;28;20188;-71
2024/01/11 11:35:43;;;;;;;62.60;30.45;;;-1.20;99.90;;;;;;5128607;28;20200;-72
2024/01/11 11:38:20;;;;;;;61.07;31.10;;;-1.20;99.90;;;;;;5128593;28;20636;-73
2024/01/11 11:40:52;;;;;;;77.88;33.45;;;-1.20;99.90;;;;;;5109732;28;20216;-72
2024/01/11 11:43:19;;;;;;;64.35;32.53;;;-1.50;99.90;;;;;;5129064;28;21024;-73
2024/01/11 11:45:47;;;;;;;70.03;31.73;;;-1.60;99.90;;;;;;5129126;28;20230;-74
2024/01/11 11:48:38;;;;;;;68.18;33.58;;;-1.70;99.90;;;;;;5129221;27;20612;-72
2024/01/11 11:51:08;;;;;;;61.88;30.80;;;-1.60;99.90;;;;;;5132479;27;20181;-73
2024/01/11 11:53:35;;;;;;;70.90;34.63;;;-1.60;99.90;;;;;;5132511;27;20193;-72
2024/01/11 11:56:02;;;;;;;63.78;32.00;;;-1.50;99.90;;;;;;5096260;27;20197;-72
2024/01/11 11:58:29;;;;;;;79.60;35.13;;;-1.30;99.90;;;;;;5113050;27;21003;-73
2024/01/11 12:00:58;;;;;;;64.10;32.50;;;-1.20;99.90;;;;;;5096306;27;20622;-72
2024/01/11 12:03:32;;;;;;;63.83;30.23;;;-1.00;99.90;;;;;;5132284;27;20177;-70
2024/01/11 12:06:00;;;;;;;62.65;32.88;;;-1.40;99.90;;;;;;5114326;27;20188;-73
2024/01/11 12:08:27;;;;;;;58.20;31.98;;;-1.30;99.90;;;;;;5131790;27;20200;-72
2024/01/11 12:10:53;;;;;;;75.63;33.72;;;-0.80;99.90;;;;;;5131694;27;20181;-72
2024/01/11 12:13:19;;;;;;;67.10;33.20;;;-0.30;99.90;;;;;;5113291;27;20181;-72
2024/01/11 12:15:44;;;;;;;64.35;33.22;;;0.10;99.90;;;;;;5131942;27;20510;-71
2024/01/11 12:18:10;;;;;;;62.60;32.03;;;0.30;99.90;;;;;;5113346;27;20300;-72
2024/01/11 12:20:36;;;;;;;61.53;32.87;;;0.50;99.90;;;;;;5131796;27;20236;-73
2024/01/11 12:23:02;;;;;;;74.97;36.20;;;0.40;99.90;;;;;;5131960;27;20226;-73
2024/01/11 12:25:28;;;;;;;65.18;33.92;;;0.30;99.90;;;;;;5112801;27;20513;-73